sensor_id;sensor_type;location;lat;lon;timestamp;pressure;altitude;pressure_sealevel;temperature;humidity
71903;BME280;59778;50.310;18.780;2023-02-16T00:06:03;99772.00;;;0.95;96.55
71903;BME280;59778;50.310;18.780;2023-02-16T00:21:25;99769.56;;;0.79;97.24
71903;BME280;59778;50.310;18.780;2023-02-16T00:36:46;99761.69;;;0.78;97.29
71903;BME280;59778;50.310;18.780;2023-02-16T01:07:43;99731.44;;;0.65;97.97
71903;BME280;59778;50.310;18.780;2023-02-16T01:23:23;99721.28;;;0.70;97.56
71903;BME280;59778;50.310;18.780;2023-02-16T01:38:45;99729.47;;;0.79;97.54
71903;BME280;59778;50.310;18.780;2023-02-16T01:54:16;99709.41;;;0.74;97.42
71903;BME280;59778;50.310;18.780;2023-02-16T02:09:46;99708.22;;;0.78;97.18
71903;BME280;59778;50.310;18.780;2023-02-16T02:25:33;99706.19;;;0.69;97.08
71903;BME280;59778;50.310;18.780;2023-02-16T02:41:14;99687.19;;;0.61;97.64
71903;BME280;59778;50.310;18.780;2023-02-16T02:56:40;99703.31;;;0.72;97.55
71903;BME280;59778;50.310;18.780;2023-02-16T03:12:23;99703.00;;;0.64;97.93
71903;BME280;59778;50.310;18.780;2023-02-16T03:28:05;99700.25;;;0.40;98.90
71903;BME280;59778;50.310;18.780;2023-02-16T03:43:46;99690.31;;;0.42;99.73
71903;BME280;59778;50.310;18.780;2023-02-16T03:59:07;99675.91;;;0.32;100.00
71903;BME280;59778;50.310;18.780;2023-02-16T04:14:28;99675.78;;;0.33;100.00
71903;BME280;59778;50.310;18.780;2023-02-16T04:29:50;99664.91;;;0.24;100.00
71903;BME280;59778;50.310;18.780;2023-02-16T04:45:11;99658.38;;;0.28;100.00
71903;BME280;59778;50.310;18.780;2023-02-16T05:00:33;99654.53;;;0.32;100.00
71903;BME280;59778;50.310;18.780;2023-02-16T05:15:55;99651.53;;;0.24;100.00
71903;BME280;59778;50.310;18.780;2023-02-16T05:31:16;99644.84;;;0.18;100.00
71903;BME280;59778;50.310;18.780;2023-02-16T05:46:39;99664.69;;;0.27;100.00
71903;BME280;59778;50.310;18.780;2023-02-16T06:02:00;99679.75;;;0.28;100.00
71903;BME280;59778;50.310;18.780;2023-02-16T06:17:22;99686.47;;;0.33;100.00
71903;BME280;59778;50.310;18.780;2023-02-16T06:32:43;99686.56;;;0.44;100.00
71903;BME280;59778;50.310;18.780;2023-02-16T06:48:05;99686.84;;;0.65;100.00
71903;BME280;59778;50.310;18.780;2023-02-16T07:03:26;99693.34;;;0.86;100.00
71903;BME280;59778;50.310;18.780;2023-02-16T07:18:47;99698.88;;;1.20;100.00
71903;BME280;59778;50.310;18.780;2023-02-16T07:34:08;99683.59;;;1.57;100.00
71903;BME280;59778;50.310;18.780;2023-02-16T07:49:30;99672.50;;;1.96;99.81
71903;BME280;59778;50.310;18.780;2023-02-16T08:04:51;99686.22;;;2.60;97.22
71903;BME280;59778;50.310;18.780;2023-02-16T08:20:13;99666.19;;;2.86;94.70
71903;BME280;59778;50.310;18.780;2023-02-16T08:35:37;99662.25;;;3.65;90.97
71903;BME280;59778;50.310;18.780;2023-02-16T08:50:58;99674.56;;;4.30;87.08
71903;BME280;59778;50.310;18.780;2023-02-16T09:06:21;99670.03;;;4.60;84.43
71903;BME280;59778;50.310;18.780;2023-02-16T09:21:42;99676.75;;;5.25;81.83
71903;BME280;59778;50.310;18.780;2023-02-16T09:37:05;99679.44;;;5.35;80.35
71903;BME280;59778;50.310;18.780;2023-02-16T10:08:31;99649.53;;;5.86;77.18
71903;BME280;59778;50.310;18.780;2023-02-16T10:24:00;99636.16;;;6.23;74.78
71903;BME280;59778;50.310;18.780;2023-02-16T10:55:05;99582.63;;;7.00;70.97
71903;BME280;59778;50.310;18.780;2023-02-16T11:41:22;99556.22;;;8.16;67.92
71903;BME280;59778;50.310;18.780;2023-02-16T11:57:00;99542.31;;;8.29;68.16
71903;BME280;59778;50.310;18.780;2023-02-16T12:28:19;99535.25;;;7.84;68.97
71903;BME280;59778;50.310;18.780;2023-02-16T12:44:01;99519.72;;;8.54;67.06
71903;BME280;59778;50.310;18.780;2023-02-16T12:59:32;99501.34;;;8.74;66.00
71903;BME280;59778;50.310;18.780;2023-02-16T13:15:21;99497.06;;;8.21;67.03
71903;BME280;59778;50.310;18.780;2023-02-16T13:30:55;99480.53;;;7.98;68.83
71903;BME280;59778;50.310;18.780;2023-02-16T13:46:32;99460.25;;;7.43;70.32
71903;BME280;59778;50.310;18.780;2023-02-16T14:01:55;99471.09;;;6.82;73.26
71903;BME280;59778;50.310;18.780;2023-02-16T14:32:45;99474.06;;;6.43;74.43
71903;BME280;59778;50.310;18.780;2023-02-16T14:48:30;99467.50;;;6.46;74.52
71903;BME280;59778;50.310;18.780;2023-02-16T15:03:55;99455.94;;;6.36;74.67
71903;BME280;59778;50.310;18.780;2023-02-16T15:19:23;99481.59;;;6.12;75.28
71903;BME280;59778;50.310;18.780;2023-02-16T15:34:46;99466.84;;;5.80;76.45
71903;BME280;59778;50.310;18.780;2023-02-16T15:50:12;99454.44;;;5.50;77.79
71903;BME280;59778;50.310;18.780;2023-02-16T16:05:35;99449.91;;;4.65;81.26
71903;BME280;59778;50.310;18.780;2023-02-16T16:21:00;99445.91;;;4.41;83.33
71903;BME280;59778;50.310;18.780;2023-02-16T16:36:31;99445.97;;;4.01;84.96
71903;BME280;59778;50.310;18.780;2023-02-16T16:51:53;99445.84;;;3.62;87.00
71903;BME280;59778;50.310;18.780;2023-02-16T17:07:15;99462.38;;;3.67;86.11
71903;BME280;59778;50.310;18.780;2023-02-16T17:22:36;99460.63;;;3.47;86.79
71903;BME280;59778;50.310;18.780;2023-02-16T17:37:58;99452.91;;;3.12;88.36
71903;BME280;59778;50.310;18.780;2023-02-16T17:53:21;99450.94;;;3.14;85.58
71903;BME280;59778;50.310;18.780;2023-02-16T18:08:43;99462.59;;;3.04;87.71
71903;BME280;59778;50.310;18.780;2023-02-16T18:24:06;99473.81;;;2.77;88.70
71903;BME280;59778;50.310;18.780;2023-02-16T18:39:27;99481.25;;;2.53;90.50
71903;BME280;59778;50.310;18.780;2023-02-16T18:54:50;99489.38;;;2.62;88.67
71903;BME280;59778;50.310;18.780;2023-02-16T19:10:11;99484.53;;;2.56;87.35
71903;BME280;59778;50.310;18.780;2023-02-16T19:25:32;99485.63;;;2.54;86.70
71903;BME280;59778;50.310;18.780;2023-02-16T19:40:54;99482.72;;;1.80;91.50
71903;BME280;59778;50.310;18.780;2023-02-16T19:56:19;99480.88;;;1.59;94.23
71903;BME280;59778;50.310;18.780;2023-02-16T20:11:41;99476.50;;;1.47;94.46
71903;BME280;59778;50.310;18.780;2023-02-16T20:27:02;99486.25;;;1.92;90.34
71903;BME280;59778;50.310;18.780;2023-02-16T20:42:24;99475.06;;;1.76;90.22
71903;BME280;59778;50.310;18.780;2023-02-16T20:57:46;99489.66;;;1.83;90.30
71903;BME280;59778;50.310;18.780;2023-02-16T21:13:07;99473.00;;;1.46;92.75
71903;BME280;59778;50.310;18.780;2023-02-16T21:28:29;99467.50;;;1.25;94.21
71903;BME280;59778;50.310;18.780;2023-02-16T21:44:09;99466.03;;;1.32;93.32
71903;BME280;59778;50.310;18.780;2023-02-16T21:59:31;99461.91;;;1.17;93.63
71903;BME280;59778;50.310;18.780;2023-02-16T22:14:52;99466.88;;;1.22;94.93
71903;BME280;59778;50.310;18.780;2023-02-16T22:30:14;99460.44;;;1.13;96.22
71903;BME280;59778;50.310;18.780;2023-02-16T22:45:36;99463.59;;;1.18;96.14
71903;BME280;59778;50.310;18.780;2023-02-16T23:00:57;99462.75;;;1.51;92.66
71903;BME280;59778;50.310;18.780;2023-02-16T23:16:21;99459.91;;;1.08;91.02
71903;BME280;59778;50.310;18.780;2023-02-16T23:31:44;99441.56;;;1.04;90.86
71903;BME280;59778;50.310;18.780;2023-02-16T23:47:06;99428.75;;;0.85;96.53
